Atlanta, Georgia
Traffic Map
Current Weather Conditions
Atlanta, Georgia
Overcast
Overcast

Feels Like: 1°
Wind Chill: Ceiling: 800
Heat Index: Visibility: 10mi
Dew Point: Wind: 22mph
Humidity: 86% Direction: 320° (NW)
Pressure: 30.09in Gusts: 35mph
Raw Report DataKATL 051952Z 32019G30KT 10SM BKN008 BKN010 OVC080 06/04 A3009 RMK AO2 PK WND 32030/1945 RAB1858E29 SLP188 P0000 T00610039
Traffic Incident Summary
Active as of:
Severity:
Category:
InformationThere was an issue retrieving the traffic information for this location. Please try a different location or try again shortly.
Advertisements
Track Severe Weather on mobile